^^
Datos históricos de la estación: Murcia-Puente Tocinos
Diario Informe para Noviembre 16, 2019 Unidades:  Ingés    Métrico   Ambas
Diario Semanal Mensual Anual
  Máxima: Mínima: Promedio:
Temperatura: 59.7 °F 46.9 °F 52.7 °F
Punto de rocio: 34.7 °F 27 °F 32.4 °F
Humedad: 61% 30% 47%
Velocidad viento: 14.7mph 2mph 7.1mph
Racha viento: 29mph - -
Viento- - OSO
Presión: 30 in 29.7 in -
Precipitación: 0 in    
 
 
Tabla de datos para Noviembre 16, 2019
Hora Temperatura Punto de rocio Presión Viento Velocidad viento Racha viento Humedad Intensidad lluvia(por hora) Nubes
00:04 46.9 °F 33.8 °F 29.7 in Oeste 2.6 mph 5.8 mph 60% 0 in
00:09 47.1 °F 33.6 °F 29.7 in Oeste 2.9 mph 6 mph 59.5% 0 in
00:14 47.1 °F 33.6 °F 29.7 in ONO 3 mph 6.2 mph 59% 0 in
00:19 47.5 °F 33.4 °F 29.7 in Oeste 3.1 mph 5.2 mph 58.3% 0 in
00:24 47.5 °F 33.4 °F 29.7 in OSO 3.1 mph 5 mph 57.8% 0 in
00:29 47.7 °F 33.3 °F 29.7 in Oeste 3.1 mph 5.2 mph 57% 0 in
00:34 47.8 °F 33.4 °F 29.7 in ONO 2.7 mph 5.9 mph 57.3% 0 in
00:39 47.8 °F 33.4 °F 29.7 in Oeste 2.4 mph 6 mph 57% 0 in
00:44 48 °F 33.4 °F 29.7 in Oeste 3.2 mph 6.9 mph 56.9% 0 in
00:49 47.8 °F 33.4 °F 29.7 in Oeste 3.6 mph 7 mph 57% 0 in
00:54 47.8 °F 33.8 °F 29.7 in Oeste 3.6 mph 6 mph 57.9% 0 in
00:59 47.8 °F 33.8 °F 29.7 in Oeste 3.6 mph 6 mph 58% 0 in
01:04 47.8 °F 34 °F 29.7 in ONO 2.8 mph 5.4 mph 58.8% 0 in
01:09 47.8 °F 34.2 °F 29.7 in ONO 2.4 mph 6 mph 59% 0 in
01:14 47.7 °F 34.2 °F 29.7 in Oeste 3.2 mph 6 mph 59% 0 in
01:19 47.8 °F 34.3 °F 29.7 in Oeste 3.6 mph 6 mph 59.5% 0 in
01:24 47.8 °F 34.5 °F 29.7 in Oeste 3.2 mph 6 mph 60% 0 in
01:29 47.8 °F 34.5 °F 29.7 in Oeste 2.9 mph 5 mph 60% 0 in
01:34 47.7 °F 34.3 °F 29.7 in ONO 2.9 mph 5.2 mph 60% 0 in
01:39 47.7 °F 34.3 °F 29.7 in ONO 2.9 mph 5.2 mph 60% 0 in
01:44 47.7 °F 34.5 °F 29.7 in ONO 3 mph 5.8 mph 60% 0 in
01:49 47.8 °F 34.5 °F 29.7 in ONO 3.1 mph 6 mph 60% 0 in
01:54 47.8 °F 34.3 °F 29.7 in ONO 3.1 mph 6 mph 59.6% 0 in
01:59 47.8 °F 34.2 °F 29.7 in ONO 3.1 mph 5 mph 59% 0 in
02:04 47.8 °F 34.3 °F 29.7 in ONO 2.6 mph 5 mph 59% 0 in
02:09 48 °F 34 °F 29.7 in ONO 2.4 mph 5 mph 58.1% 0 in
02:14 48.6 °F 34 °F 29.7 in Sur 2.4 mph 5.4 mph 57.1% 0 in
02:19 48.7 °F 34.2 °F 29.7 in NO 2.4 mph 6 mph 57.2% 0 in
02:24 48.7 °F 34.3 °F 29.7 in ONO 2.1 mph 6 mph 57.2% 0 in
02:29 48.6 °F 34.5 °F 29.7 in ESE 2 mph 5.8 mph 58% 0 in
02:34 48.2 °F 34.2 °F 29.7 in ESE 2.6 mph 6 mph 58.2% 0 in
02:39 47.7 °F 34 °F 29.7 in Este 2.9 mph 5 mph 59% 0 in
02:44 47.3 °F 34 °F 29.7 in ESE 2.9 mph 5 mph 59.7% 0 in
02:49 46.9 °F 34.2 °F 29.7 in SE 2.9 mph 5 mph 60.6% 0 in
02:54 46.9 °F 33.8 °F 29.7 in Sur 2.9 mph 5 mph 60% 0 in
02:59 46.9 °F 33.6 °F 29.7 in SSE 2.9 mph 5.9 mph 59.5% 0 in
03:04 46.9 °F 33.8 °F 29.7 in SSO 3 mph 6 mph 60% 0 in
03:09 46.9 °F 33.8 °F 29.7 in SSO 3.1 mph 5 mph 60% 0 in
03:14 46.9 °F 33.8 °F 29.7 in SSO 2.7 mph 5.2 mph 60% 0 in
03:19 47.3 °F 33.8 °F 29.7 in SSO 2.4 mph 5.9 mph 59.2% 0 in
03:24 47.7 °F 33.6 °F 29.7 in SSO 3.4 mph 6.9 mph 58.1% 0 in
03:29 47.8 °F 33.6 °F 29.7 in SSO 4 mph 7 mph 57.6% 0 in
03:34 47.8 °F 33.8 °F 29.7 in SO 4 mph 6 mph 57.9% 0 in
03:39 47.7 °F 33.6 °F 29.7 in SSO 4 mph 5.4 mph 57.8% 0 in
03:44 47.7 °F 33.4 °F 29.7 in SSO 3.4 mph 6.9 mph 57.4% 0 in
03:49 47.7 °F 33.3 °F 29.7 in Sur 3.1 mph 7 mph 57.1% 0 in
03:54 47.8 °F 33.3 °F 29.7 in Sur 3.7 mph 7.4 mph 57% 0 in
03:59 47.8 °F 33.3 °F 29.7 in SSO 4 mph 8.1 mph 57% 0 in
04:04 47.8 °F 33.3 °F 29.7 in Sur 4.8 mph 8 mph 57% 0 in
04:09 47.8 °F 33.3 °F 29.7 in SSO 5.2 mph 8.1 mph 57% 0 in
04:14 48 °F 33.4 °F 29.7 in SSO 5.2 mph 8 mph 57% 0 in
04:19 48 °F 33.4 °F 29.7 in Sur 5.2 mph 7 mph 57% 0 in
04:24 48 °F 33.4 °F 29.7 in SSO 4.8 mph 8.1 mph 57% 0 in
04:29 48 °F 33.3 °F 29.7 in Sur 4.7 mph 8.5 mph 56.6% 0 in
04:34 48 °F 33.1 °F 29.7 in SSO 5.2 mph 9 mph 56% 0 in
04:39 48 °F 33.1 °F 29.8 in SSO 5.4 mph 10.2 mph 56% 0 in
04:44 48.2 °F 33.1 °F 29.8 in SSO 5.4 mph 10.4 mph 56% 0 in
04:49 48 °F 33.1 °F 29.8 in SSO 5.4 mph 10 mph 56% 0 in
04:54 48 °F 33.4 °F 29.8 in SSO 5.3 mph 10 mph 56.9% 0 in
04:59 47.8 °F 33.4 °F 29.8 in SSO 5.2 mph 10.7 mph 57.1% 0 in
05:04 47.8 °F 33.8 °F 29.8 in Sur 6.3 mph 11 mph 58% 0 in
05:09 47.7 °F 33.6 °F 29.8 in SSO 6.9 mph 10 mph 58% 0 in
05:14 47.7 °F 34 °F 29.8 in Sur 5.8 mph 10.7 mph 58.8% 0 in
05:19 47.7 °F 34 °F 29.8 in SSO 5.2 mph 11 mph 59% 0 in
05:24 47.8 °F 34.2 °F 29.8 in SSO 5.8 mph 10 mph 58.7% 0 in
05:29 48 °F 34 °F 29.8 in SSO 6.2 mph 10 mph 58% 0 in
05:34 48.2 °F 34.2 °F 29.8 in SO 5.6 mph 10.4 mph 58% 0 in
05:39 48.6 °F 34.3 °F 29.8 in SO 5.2 mph 10 mph 58% 0 in
05:44 48.6 °F 34.2 °F 29.8 in SSO 5.2 mph 9.2 mph 57.2% 0 in
05:49 48.7 °F 34.2 °F 29.8 in Sur 5.2 mph 9 mph 57% 0 in
05:54 48.7 °F 34.2 °F 29.8 in SSO 5.3 mph 10.4 mph 57% 0 in
05:59 48.7 °F 34.2 °F 29.8 in SSO 5.4 mph 10 mph 57% 0 in
06:04 48.7 °F 34.2 °F 29.8 in SSO 4.7 mph 6.9 mph 57% 0 in
06:09 48.6 °F 34.3 °F 29.8 in SSO 4.3 mph 7.4 mph 58% 0 in
06:14 48.4 °F 34.3 °F 29.8 in Sur 4.6 mph 8.1 mph 58% 0 in
06:19 48.2 °F 34.2 °F 29.8 in SSO 4.7 mph 8.1 mph 58.1% 0 in
06:24 48 °F 34.3 °F 29.8 in SSO 5 mph 9.2 mph 59% 0 in
06:29 48 °F 34.3 °F 29.8 in SSO 5.2 mph 9 mph 59% 0 in
06:34 47.8 °F 34.2 °F 29.8 in SSO 5.2 mph 8 mph 59% 0 in
06:39 47.8 °F 34.2 °F 29.8 in Sur 5.2 mph 8.1 mph 59% 0 in
06:44 47.7 °F 34.2 °F 29.8 in Sur 4.8 mph 8.1 mph 59.4% 0 in
06:49 47.5 °F 34.3 °F 29.8 in Sur 4.7 mph 8.5 mph 60% 0 in
06:54 47.3 °F 34.2 °F 29.8 in Sur 5 mph 10 mph 60% 0 in
06:59 47.1 °F 34 °F 29.8 in SSE 5.2 mph 10.4 mph 60% 0 in
07:04 47.1 °F 34 °F 29.8 in Sur 5.8 mph 9.2 mph 60% 0 in
07:09 47.1 °F 34.3 °F 29.8 in SSE 6.2 mph 9 mph 61% 0 in
07:14 46.9 °F 34.2 °F 29.8 in Sur 5.5 mph 8.1 mph 61% 0 in
07:19 47.1 °F 34.3 °F 29.8 in Sur 5.2 mph 8.1 mph 61% 0 in
07:24 47.1 °F 34 °F 29.8 in Sur 4.6 mph 8 mph 60.1% 0 in
07:29 47.3 °F 34 °F 29.8 in Sur 4.3 mph 7.4 mph 60% 0 in
07:34 47.3 °F 34.2 °F 29.8 in Sur 4.6 mph 8.1 mph 60% 0 in
07:39 47.3 °F 34.2 °F 29.8 in Sur 4.7 mph 8 mph 60% 0 in
07:44 47.3 °F 34.2 °F 29.8 in Sur 4.2 mph 6.2 mph 60% 0 in
07:49 47.5 °F 34.2 °F 29.8 in Sur 4 mph 8.7 mph 60% 0 in
07:54 47.7 °F 34.3 °F 29.8 in SSO 4.5 mph 10 mph 60% 0 in
07:59 47.7 °F 34.3 °F 29.8 in SSO 4.7 mph 10.4 mph 60% 0 in
08:04 47.7 °F 34.2 °F 29.8 in SSO 5.5 mph 10 mph 59.2% 0 in
08:09 47.8 °F 34.2 °F 29.8 in SSO 5.9 mph 8.1 mph 59% 0 in
08:14 47.8 °F 34.2 °F 29.8 in SSO 5.5 mph 8.1 mph 59% 0 in
08:19 47.8 °F 34.3 °F 29.8 in SSO 5.2 mph 7.6 mph 59% 0 in
08:24 48 °F 34.3 °F 29.8 in SO 4.6 mph 8.1 mph 58.9% 0 in
08:29 48 °F 34 °F 29.8 in SO 4.3 mph 7 mph 58% 0 in
08:34 48.4 °F 34.2 °F 29.8 in SO 4.3 mph 6.2 mph 58% 0 in
08:39 48.4 °F 34.3 °F 29.8 in SO 4.3 mph 8.1 mph 58% 0 in
08:44 48.6 °F 34.3 °F 29.8 in OSO 4.3 mph 8 mph 58% 0 in
08:49 48.7 °F 34.3 °F 29.8 in Oeste 4.3 mph 11.5 mph 57.6% 0 in
08:54 48.9 °F 34.3 °F 29.9 in Oeste 4.3 mph 12 mph 57% 0 in
08:59 49.1 °F 34.2 °F 29.9 in Oeste 4.3 mph 14.7 mph 56.2% 0 in
09:04 49.3 °F 34.2 °F 29.9 in Oeste 6.4 mph 15 mph 56% 0 in
09:09 49.3 °F 34.3 °F 29.9 in Oeste 7.4 mph 15 mph 56.1% 0 in
09:14 49.3 °F 34.5 °F 29.9 in Oeste 6.5 mph 10.4 mph 56.5% 0 in
09:19 49.5 °F 34.7 °F 29.9 in SO 5.9 mph 10 mph 57% 0 in
09:24 49.6 °F 34.5 °F 29.9 in OSO 4.4 mph 6 mph 56.1% 0 in
09:29 49.8 °F 34.7 °F 29.9 in Oeste 3.6 mph 5 mph 56% 0 in
09:34 50.4 °F 34.7 °F 29.9 in SO 2.8 mph 9.7 mph 54.7% 0 in
09:39 50.5 °F 34.5 °F 29.9 in ONO 2.4 mph 11.8 mph 54% 0 in
09:44 50.4 °F 34.5 °F 29.9 in Oeste 4.7 mph 12 mph 54.1% 0 in
09:49 50.5 °F 34.5 °F 29.9 in Oeste 5.9 mph 15.6 mph 54% 0 in
09:54 50.5 °F 34.3 °F 29.9 in OSO 7 mph 18.4 mph 53.5% 0 in
09:59 50.7 °F 34.2 °F 29.9 in Oeste 7.6 mph 18.5 mph 53.1% 0 in
10:04 50.7 °F 34.3 °F 29.9 in Oeste 9.1 mph 19 mph 53% 0 in
10:09 50.9 °F 34.3 °F 29.9 in Oeste 9.7 mph 18 mph 53% 0 in
10:14 51.3 °F 34.5 °F 29.9 in Oeste 9.1 mph 21.3 mph 52.7% 0 in
10:19 51.4 °F 34.3 °F 29.9 in Oeste 8.7 mph 21 mph 52% 0 in
10:24 51.4 °F 34.5 °F 29.9 in Oeste 10 mph 20.8 mph 52% 0 in
10:29 51.6 °F 34.2 °F 29.9 in Oeste 10.7 mph 21 mph 51.2% 0 in
10:34 51.8 °F 34.3 °F 29.9 in Oeste 11 mph 20.7 mph 51.1% 0 in
10:39 52.2 °F 34.3 °F 29.9 in Oeste 11.2 mph 21 mph 50.7% 0 in
10:44 52.2 °F 34.2 °F 29.9 in Oeste 10.4 mph 20.8 mph 50% 0 in
10:49 52.3 °F 34 °F 29.9 in ONO 10 mph 21.9 mph 49.5% 0 in
10:54 52.5 °F 34 °F 29.9 in ONO 11.9 mph 22 mph 49.2% 0 in
10:59 52.7 °F 34.2 °F 29.9 in ONO 13 mph 24.6 mph 49.2% 0 in
11:04 52.9 °F 34.2 °F 29.9 in Oeste 11.9 mph 25 mph 49% 0 in
11:09 53.1 °F 34.2 °F 29.9 in Oeste 11.4 mph 22.3 mph 48.7% 0 in
11:14 53.2 °F 34 °F 29.9 in Oeste 12 mph 22 mph 48% 0 in
11:19 53.4 °F 34.2 °F 29.9 in Oeste 12.3 mph 22 mph 48% 0 in
11:24 53.6 °F 34.3 °F 29.9 in Oeste 12.7 mph 22 mph 48% 0 in
11:29 54 °F 34.5 °F 29.9 in Oeste 13 mph 18.5 mph 47.6% 0 in
11:34 54.1 °F 34 °F 29.9 in ONO 11.5 mph 23.5 mph 46.5% 0 in
11:39 54.1 °F 34.2 °F 29.9 in ONO 10.7 mph 23 mph 46.6% 0 in
11:44 54.5 °F 34.7 °F 29.9 in Oeste 10.3 mph 19 mph 47% 0 in
11:49 54.9 °F 34.7 °F 29.9 in ONO 10 mph 15 mph 46.5% 0 in
11:54 55.2 °F 34.5 °F 29.9 in Oeste 8.8 mph 24.6 mph 45.6% 0 in
11:59 55.2 °F 34.2 °F 29.9 in OSO 8.1 mph 25 mph 44.8% 0 in
12:04 55.2 °F 33.8 °F 29.9 in Oeste 10.6 mph 20.7 mph 44.2% 0 in
12:09 55.6 °F 33.8 °F 29.9 in Oeste 11.8 mph 24.2 mph 43.7% 0 in
12:14 55.6 °F 34 °F 29.9 in ONO 11.4 mph 24 mph 43.9% 0 in
12:19 55.9 °F 34.2 °F 29.9 in Oeste 11.2 mph 17.3 mph 43.5% 0 in
12:24 56.1 °F 33.8 °F 29.9 in ONO 10.3 mph 20.7 mph 42.8% 0 in
12:29 56.1 °F 33.6 °F 29.9 in Oeste 9.7 mph 23 mph 42.7% 0 in
12:34 56.1 °F 33.3 °F 29.9 in ONO 11.5 mph 25.3 mph 41.8% 0 in
12:39 56.1 °F 33.4 °F 29.9 in ONO 12.5 mph 25 mph 42% 0 in
12:44 56.5 °F 33.4 °F 29.9 in Oeste 11.8 mph 20.4 mph 41.6% 0 in
12:49 56.7 °F 33.3 °F 29.9 in OSO 11.4 mph 22.5 mph 41.1% 0 in
12:54 56.7 °F 33.3 °F 29.9 in Oeste 11.7 mph 23.5 mph 41% 0 in
12:59 56.7 °F 33.3 °F 29.9 in Oeste 11.8 mph 24.2 mph 41% 0 in
13:04 56.7 °F 33.3 °F 29.9 in Oeste 12.3 mph 24 mph 41% 0 in
13:09 57 °F 33.3 °F 29.9 in ONO 12.5 mph 23.5 mph 40.6% 0 in
13:14 56.8 °F 33.3 °F 29.9 in ONO 12.5 mph 24.2 mph 40.7% 0 in
13:19 56.8 °F 33.1 °F 29.9 in Oeste 12.5 mph 24.2 mph 40.6% 0 in
13:24 56.8 °F 33.1 °F 29.9 in Oeste 13.2 mph 24 mph 40.4% 0 in
13:29 57.2 °F 33.1 °F 29.9 in ONO 13.5 mph 26.5 mph 40% 0 in
13:34 57.4 °F 33.3 °F 29.9 in Oeste 13.9 mph 26 mph 40% 0 in
13:39 57.7 °F 33.4 °F 29.9 in ONO 14 mph 23 mph 39.6% 0 in
13:44 57.7 °F 32.9 °F 29.9 in ONO 12.3 mph 23.5 mph 38.9% 0 in
13:49 57.7 °F 32.9 °F 29.9 in Oeste 11.4 mph 23 mph 39% 0 in
13:54 57.9 °F 32.5 °F 29.9 in ONO 12.4 mph 25.6 mph 38.1% 0 in
13:59 57.9 °F 32.5 °F 29.9 in Oeste 13 mph 26 mph 38.2% 0 in
14:04 57.9 °F 32.4 °F 29.9 in ONO 13.4 mph 22 mph 38% 0 in
14:09 58.3 °F 32.7 °F 29.9 in Oeste 13.5 mph 20 mph 37.8% 0 in
14:14 58.6 °F 32.4 °F 29.9 in Oeste 11.4 mph 27.6 mph 37.1% 0 in
14:19 58.5 °F 32.4 °F 29.9 in ONO 10.2 mph 28 mph 36.9% 0 in
14:24 58.6 °F 32.4 °F 29.9 in ONO 11.2 mph 25.6 mph 37% 0 in
14:29 58.5 °F 32.4 °F 29.9 in ONO 11.8 mph 27.6 mph 37% 0 in
14:34 58.6 °F 32.4 °F 29.9 in ONO 12.6 mph 28 mph 36.9% 0 in
14:39 58.6 °F 32.2 °F 29.9 in Oeste 13 mph 23 mph 36.6% 0 in
14:44 59 °F 32.5 °F 29.9 in Oeste 11.5 mph 23 mph 36.7% 0 in
14:49 59.2 °F 32.2 °F 29.9 in ONO 10.7 mph 21 mph 36% 0 in
14:54 59 °F 32.2 °F 29.9 in ONO 12.6 mph 28.8 mph 36% 0 in
14:59 58.8 °F 32 °F 29.9 in ONO 13.7 mph 29 mph 36% 0 in
15:04 59.2 °F 32.2 °F 29.9 in ONO 13.5 mph 23.5 mph 36% 0 in
15:09 59.2 °F 31.5 °F 29.9 in ONO 13.5 mph 26.5 mph 35% 0 in
15:14 59.4 °F 31.6 °F 29.9 in ONO 14.3 mph 26 mph 34.9% 0 in
15:19 59.4 °F 31.3 °F 29.9 in ONO 14.7 mph 25 mph 34.4% 0 in
15:24 59.4 °F 31.5 °F 29.9 in ONO 14.6 mph 23 mph 34.7% 0 in
15:29 59.5 °F 30.7 °F 29.9 in ONO 14.5 mph 23.7 mph 33.7% 0 in
15:34 59.4 °F 29.8 °F 29.9 in ONO 13.9 mph 27.9 mph 32.3% 0 in
15:39 59.5 °F 29.7 °F 29.9 in ONO 13.5 mph 28 mph 32% 0 in
15:44 59.5 °F 29.7 °F 29.9 in ONO 14.3 mph 24.2 mph 32% 0 in
15:49 59.7 °F 29.3 °F 29.9 in ONO 14.7 mph 24 mph 31.3% 0 in
15:54 59.7 °F 28.9 °F 29.9 in ONO 13.9 mph 23 mph 31% 0 in
15:59 59.7 °F 28.6 °F 29.9 in ONO 13.5 mph 23.5 mph 30.5% 0 in
16:04 59.5 °F 28 °F 29.9 in ONO 13.7 mph 25.3 mph 30% 0 in
16:09 59.5 °F 28.6 °F 29.9 in ONO 13.7 mph 25 mph 30.7% 0 in
16:14 59.5 °F 28.8 °F 29.9 in ONO 12.9 mph 24.2 mph 31% 0 in
16:19 59.5 °F 28.9 °F 29.9 in ONO 12.5 mph 24 mph 31% 0 in
16:24 59.7 °F 28.9 °F 29.9 in ONO 11.8 mph 19.2 mph 31% 0 in
16:29 59.7 °F 28.9 °F 29.9 in ONO 11.4 mph 21.5 mph 31% 0 in
16:34 59.5 °F 28.9 °F 29.9 in ONO 11.4 mph 22 mph 31% 0 in
16:39 59.5 °F 28.8 °F 29.9 in ONO 11.4 mph 21.3 mph 31% 0 in
16:44 59.5 °F 28.8 °F 29.9 in ONO 11.2 mph 21 mph 31% 0 in
16:49 59.5 °F 28.6 °F 29.9 in ONO 11.2 mph 19.7 mph 30.8% 0 in
16:54 59.5 °F 28.8 °F 29.9 in ONO 11.6 mph 20 mph 31% 0 in
16:59 59.4 °F 28 °F 29.9 in ONO 11.8 mph 23 mph 30.2% 0 in
17:04 59.4 °F 27.9 °F 29.9 in ONO 11.8 mph 23 mph 30% 0 in
17:09 59.2 °F 27.9 °F 29.9 in ONO 11.8 mph 22 mph 30.2% 0 in
17:14 59.2 °F 28.4 °F 29.9 in ONO 11.1 mph 17.3 mph 30.8% 0 in
17:19 59.2 °F 28.4 °F 29.9 in ONO 10.7 mph 17.5 mph 31% 0 in
17:24 59 °F 27.9 °F 29.9 in ONO 10.4 mph 19.6 mph 30.4% 0 in
17:29 58.8 °F 27.3 °F 29.9 in ONO 10.2 mph 20 mph 30% 0 in
17:34 58.6 °F 27.3 °F 29.9 in ONO 10.2 mph 16 mph 30% 0 in
17:39 58.6 °F 27.1 °F 29.9 in ONO 10.2 mph 17.3 mph 30% 0 in
17:44 58.5 °F 27.1 °F 29.9 in ONO 9.6 mph 17 mph 30% 0 in
17:49 58.3 °F 27 °F 29.9 in ONO 9.2 mph 16 mph 30% 0 in
17:54 58.1 °F 27.1 °F 29.9 in ONO 8.5 mph 13.5 mph 30.3% 0 in
17:59 57.9 °F 27.3 °F 29.9 in Oeste 8.1 mph 15 mph 31% 0 in
18:04 57.7 °F 27.3 °F 29.9 in Oeste 7.3 mph 15 mph 31% 0 in
18:09 57.6 °F 27.5 °F 29.9 in Oeste 6.9 mph 13 mph 31.5% 0 in
18:14 57.6 °F 27.9 °F 29.9 in Oeste 6 mph 13.8 mph 32% 0 in
18:19 57.4 °F 27.7 °F 29.9 in OSO 5.4 mph 14 mph 32% 0 in
18:24 57 °F 28 °F 29.9 in Oeste 5.4 mph 13.8 mph 32.7% 0 in
18:29 56.8 °F 28.2 °F 29.9 in ONO 5.4 mph 14 mph 33.2% 0 in
18:34 56.7 °F 28.8 °F 29.9 in ONO 5.9 mph 15 mph 34.2% 0 in
18:39 56.8 °F 29.3 °F 29.9 in ONO 6.2 mph 18.5 mph 35% 0 in
18:44 57 °F 29.7 °F 29.9 in ONO 9.1 mph 19 mph 35% 0 in
18:49 57 °F 29.7 °F 29.9 in Oeste 10.7 mph 18 mph 35% 0 in
18:54 57 °F 29.7 °F 29.9 in Oeste 10 mph 17 mph 35% 0 in
18:59 57 °F 29.7 °F 29.9 in Oeste 9.7 mph 16 mph 35.2% 0 in
19:04 56.8 °F 30 °F 29.9 in Oeste 8.6 mph 16.1 mph 36% 0 in
19:09 56.7 °F 30.7 °F 29.9 in Oeste 8.1 mph 16 mph 37% 0 in
19:14 56.5 °F 30.6 °F 29.9 in Oeste 8.4 mph 18.4 mph 37.1% 0 in
19:19 56.5 °F 31.3 °F 29.9 in Oeste 8.5 mph 18 mph 38% 0 in
19:24 56.3 °F 30.9 °F 29.9 in Oeste 8.5 mph 15 mph 38% 0 in
19:29 55.9 °F 31.3 °F 29.9 in Oeste 8.5 mph 9.7 mph 38.8% 0 in
19:34 55.8 °F 31.1 °F 29.9 in OSO 6.3 mph 10 mph 39% 0 in
19:39 55.4 °F 30.9 °F 29.9 in OSO 5.2 mph 8.1 mph 39% 0 in
19:44 55.2 °F 30.7 °F 29.9 in Oeste 4.4 mph 9.2 mph 39% 0 in
19:49 55.2 °F 30.7 °F 29.9 in Oeste 4 mph 10.4 mph 39% 0 in
19:54 55.2 °F 30.7 °F 30 in Oeste 4.9 mph 10 mph 39% 0 in
19:59 55 °F 30.6 °F 30 in OSO 5.4 mph 13.8 mph 39% 0 in
20:04 55.2 °F 30.9 °F 30 in Oeste 5.3 mph 14 mph 39.5% 0 in
20:09 54.9 °F 31.1 °F 30 in Oeste 5.2 mph 10 mph 40.2% 0 in
20:14 54.5 °F 31.3 °F 30 in Oeste 5.7 mph 10 mph 41% 0 in
20:19 54.3 °F 31.3 °F 30 in Oeste 5.9 mph 10 mph 41.2% 0 in
20:24 54.3 °F 31.6 °F 30 in Oeste 5.5 mph 9 mph 42% 0 in
20:29 54.1 °F 31.6 °F 30 in Oeste 5.2 mph 8.1 mph 42% 0 in
20:34 54.1 °F 31.5 °F 30 in Oeste 5.2 mph 10.7 mph 42% 0 in
20:39 54.3 °F 31.6 °F 30 in Oeste 5.2 mph 15 mph 42% 0 in
20:44 54.3 °F 31.6 °F 30 in Oeste 5.3 mph 15 mph 42% 0 in
20:49 54.1 °F 31.5 °F 30 in Oeste 5.4 mph 8.1 mph 42% 0 in
20:54 54.1 °F 31.5 °F 30 in Oeste 5.3 mph 8.1 mph 42% 0 in
20:59 54.3 °F 31.6 °F 30 in OSO 5.2 mph 8 mph 42% 0 in
21:04 54.3 °F 31.6 °F 30 in Oeste 4.4 mph 9.7 mph 42% 0 in
21:09 54.3 °F 31.6 °F 30 in Oeste 4 mph 10 mph 42% 0 in
21:14 54.3 °F 31.6 °F 30 in OSO 4.8 mph 10 mph 42.1% 0 in
21:19 54.1 °F 32 °F 30 in OSO 5.2 mph 9.7 mph 42.9% 0 in
21:24 54 °F 31.6 °F 30 in OSO 5.2 mph 10 mph 42.3% 0 in
21:29 54 °F 31.5 °F 30 in SO 5.2 mph 9.2 mph 42% 0 in
21:34 54 °F 31.6 °F 30 in Oeste 4.8 mph 9 mph 42.5% 0 in
21:39 54 °F 31.8 °F 30 in Oeste 4.7 mph 10.4 mph 43% 0 in
21:44 54 °F 31.8 °F 30 in OSO 4.7 mph 10 mph 42.7% 0 in
21:49 54.1 °F 32 °F 30 in OSO 4.7 mph 10.7 mph 42.9% 0 in
21:54 54.1 °F 32 °F 30 in OSO 5.2 mph 11 mph 43% 0 in
21:59 54 °F 32 °F 30 in OSO 5.4 mph 10.4 mph 43% 0 in
22:04 54 °F 32 °F 30 in OSO 5.3 mph 10 mph 43% 0 in
22:09 53.8 °F 31.8 °F 30 in OSO 5.2 mph 9 mph 43% 0 in
22:14 53.6 °F 31.6 °F 30 in OSO 4.2 mph 7 mph 43.2% 0 in
22:19 53.4 °F 32 °F 30 in SSO 3.6 mph 6 mph 44% 0 in
22:24 53.2 °F 32 °F 30 in Sur 2.9 mph 5 mph 44.3% 0 in
22:29 52.9 °F 32.2 °F 30 in SSE 2.4 mph 5 mph 45% 0 in
22:34 52.3 °F 32.2 °F 30 in SSE 2.4 mph 5 mph 46% 0 in
22:39 52 °F 32.2 °F 30 in SSE 2.4 mph 5.4 mph 46.7% 0 in
22:44 51.4 °F 31.8 °F 30 in SSO 3.2 mph 9.2 mph 46.9% 0 in
22:49 51.8 °F 31.6 °F 30 in SO 3.6 mph 9.2 mph 45.8% 0 in
22:54 52.3 °F 31.1 °F 30 in SSO 5.1 mph 11.5 mph 44.4% 0 in
22:59 52.5 °F 31.3 °F 30 in Sur 5.9 mph 12 mph 44% 0 in
23:04 52.5 °F 30.7 °F 30 in Sur 6.2 mph 9 mph 43.4% 0 in
23:09 52.5 °F 30.6 °F 30 in SSO 6.4 mph 9 mph 43% 0 in
23:14 52.5 °F 30.4 °F 30 in SSO 5.3 mph 12.3 mph 42.5% 0 in
23:19 53.1 °F 30 °F 30 in SO 4.7 mph 13.8 mph 41.3% 0 in
23:24 53.2 °F 30 °F 30 in SO 5.8 mph 14 mph 40.6% 0 in
23:29 53.4 °F 29.7 °F 30 in SO 6.4 mph 14 mph 40% 0 in
23:34 53.6 °F 29.8 °F 30 in SO 6.7 mph 14 mph 40% 0 in
23:39 53.6 °F 29.5 °F 30 in SO 6.9 mph 15 mph 39.5% 0 in
23:44 53.4 °F 29.1 °F 30 in OSO 7.7 mph 15 mph 39.1% 0 in
23:49 53.2 °F 29.5 °F 30 in OSO 8.1 mph 14.5 mph 39.9% 0 in
23:54 53.2 °F 29.5 °F 30 in OSO 8.1 mph 15 mph 40% 0 in
23:59 53.1 °F 29.5 °F 30 in OSO 8.1 mph 15 mph 40% 0 in
Murcia-Puente Tocinos, España
Compliments of Weather Underground - 3 mb

La estación de MeteoMurcia.com, publica sus datos en los siguientes proyectos:

Weather Underground PWS IMURCIAP2 Meteoclimatic www.awekas.at

W3Counter
Web Analytics